METAR Data
IDs: Format: Raw Decoded Include TAF

Data at: 2052 UTC 17 Nov 2019

METAR for:KJAX (Jacksonville Intl, FL, US)
Text:KJAX 171956Z 00000KT 10SM SCT024 BKN200 15/08 A2989 RMK AO2 SLP122 T01500083 $
Temperature: 15.0°C ( 59°F)
Dewpoint: 8.3°C ( 47°F) [RH = 64%]
Pressure (altimeter):29.89 inches Hg (1012.3 mb) [Sea level pressure: 1012.2 mb]
Winds:calm
Visibility:10 or more sm (16+ km)
Ceiling:20000 feet AGL
Clouds: scattered clouds at 2400 feet AGL, broken clouds at 20000 feet AGL
QC Flag:SOME DATA ABOVE MAY BE INACCURATE!!!"$" is an indication the sensor requires maintenance.

METAR for:KCRG (Jacksonville/Executi, FL, US)
Text:KCRG 172048Z VRB03KT 10SM SCT021 13/08 A2989 RMK AO2
Temperature: 13.0°C ( 55°F)
Dewpoint: 8.0°C ( 46°F) [RH = 72%]
Pressure (altimeter):29.89 inches Hg (1012.3 mb)
Winds:variable direction winds at 3 MPH (3 knots; 1.5 m/s)
Visibility:10 or more sm (16+ km)
Ceiling:at least 12,000 feet AGL
Clouds: scattered clouds at 2100 feet AGL

METAR for:KNIP (Jacksonville (NAS), FL, US)
Text:KNIP 172025Z 36005KT 10SM SCT018 15/08 A2990 RMK AO2 T01500083 $
Temperature: 15.0°C ( 59°F)
Dewpoint: 8.3°C ( 47°F) [RH = 64%]
Pressure (altimeter):29.90 inches Hg (1012.6 mb)
Winds:from the N (360 degrees) at 6 MPH (5 knots; 2.6 m/s)
Visibility:10 or more sm (16+ km)
Ceiling:at least 12,000 feet AGL
Clouds: scattered clouds at 1800 feet AGL
QC Flag:SOME DATA ABOVE MAY BE INACCURATE!!!"$" is an indication the sensor requires maintenance.

METAR for:KNRB (Mayport (NS), FL, US)
Text:KNRB 172022Z AUTO 30007KT 10SM SCT023 11/08 A2989 RMK AO2 T01110083 $
Temperature: 11.1°C ( 52°F)
Dewpoint: 8.3°C ( 47°F) [RH = 83%]
Pressure (altimeter):29.89 inches Hg (1012.3 mb)
Winds:from the WNW (300 degrees) at 8 MPH (7 knots; 3.6 m/s)
Visibility:10 or more sm (16+ km)
Ceiling:at least 12,000 feet AGL
Clouds: scattered clouds at 2300 feet AGL
QC Flag:automated observation with no human augmentation; SOME DATA ABOVE MAY BE INACCURATE!!!"$" is an indication the sensor requires maintenance.

METAR for:KFHB (Fernandina Beach Mun, FL, US)
Text:KFHB 172035Z AUTO 36007KT 10SM CLR 15/09 A2989 RMK AO2 T01460092
Temperature: 14.6°C ( 58°F)
Dewpoint: 9.2°C ( 49°F) [RH = 70%]
Pressure (altimeter):29.89 inches Hg (1012.3 mb)
Winds:from the N (360 degrees) at 8 MPH (7 knots; 3.6 m/s)
Visibility:10 or more sm (16+ km)
Ceiling:at least 12,000 feet AGL
Clouds:sky clear below 12,000 feet AGL
QC Flag:automated observation with no human augmentation

METAR for:KVQQ (Jacksonville/Cecil A, FL, US)
Text:KVQQ 172050Z VRB04KT 10SM CLR 16/08 A2988
Temperature: 16.0°C ( 61°F)
Dewpoint: 8.0°C ( 46°F) [RH = 59%]
Pressure (altimeter):29.88 inches Hg (1011.9 mb)
Winds:variable direction winds at 5 MPH (4 knots; 2.1 m/s)
Visibility:10 or more sm (16+ km)
Ceiling:at least 12,000 feet AGL
Clouds:sky clear below 12,000 feet AGL